PRG weather

Václav Havel Airport Prague
Prague, Prague (capital city), Czechia

Public forecast

Using degrees Celsius for public forecast. Weather courtesy of forecast.io.

Current aviation weather report (METAR) for Václav Havel Airport Prague

Retrieved 2019/10/21 21:43 UTC (0 seconds ago):

LKPR 212143Z 24004KT 0800 0500SE R24/P2000U BCFG FEW003 09/08 Q1022 RMK REG QNH 1019

Aviation forecast (TAF) for Václav Havel Airport Prague

Retrieved 2019/10/21 18:21 UTC (3 hours ago):

TAF LKPR 211700Z 2118/2300 VRB02KT 6000 NSC BECMG 2120/2123 2500 BR MIFG SCT004 BECMG 2123/2201 0700 FG OVC002 TEMPO 2203/2208 0200 FG OVC001 BECMG 2209/2212 3000 BR BKN006 TEMPO 2212/2216 07005KT 7000 SCT010 BECMG 2216/2218 0200 FG VV001